sensor_id;sensor_type;location;lat;lon;timestamp;pressure;altitude;pressure_sealevel;temperature;humidity
55517;BME280;41724;51.176;-0.708;2023-01-10T00:00:08;101021.18;;;5.98;62.52
55517;BME280;41724;51.176;-0.708;2023-01-10T00:02:35;101027.19;;;6.20;62.06
55517;BME280;41724;51.176;-0.708;2023-01-10T00:05:03;101024.68;;;6.60;62.24
55517;BME280;41724;51.176;-0.708;2023-01-10T00:07:31;101021.92;;;7.07;59.78
55517;BME280;41724;51.176;-0.708;2023-01-10T00:09:58;101026.73;;;7.21;58.76
55517;BME280;41724;51.176;-0.708;2023-01-10T00:12:25;101029.97;;;7.33;58.00
55517;BME280;41724;51.176;-0.708;2023-01-10T00:14:52;101033.88;;;6.74;59.53
55517;BME280;41724;51.176;-0.708;2023-01-10T00:17:20;101036.03;;;6.72;60.18
55517;BME280;41724;51.176;-0.708;2023-01-10T00:19:47;101036.07;;;7.11;58.49
55517;BME280;41724;51.176;-0.708;2023-01-10T00:22:14;101043.16;;;7.03;58.11
55517;BME280;41724;51.176;-0.708;2023-01-10T00:24:42;101038.46;;;7.14;57.70
55517;BME280;41724;51.176;-0.708;2023-01-10T00:27:10;101038.32;;;7.34;57.14
55517;BME280;41724;51.176;-0.708;2023-01-10T00:29:38;101036.44;;;7.38;56.41
55517;BME280;41724;51.176;-0.708;2023-01-10T00:32:05;101042.99;;;6.93;57.62
55517;BME280;41724;51.176;-0.708;2023-01-10T00:34:32;101043.32;;;6.71;58.92
55517;BME280;41724;51.176;-0.708;2023-01-10T00:36:59;101050.44;;;6.92;57.97
55517;BME280;41724;51.176;-0.708;2023-01-10T00:39:27;101054.51;;;7.14;57.65
55517;BME280;41724;51.176;-0.708;2023-01-10T00:41:54;101060.88;;;7.30;57.94
55517;BME280;41724;51.176;-0.708;2023-01-10T00:44:21;101057.12;;;6.97;56.53
55517;BME280;41724;51.176;-0.708;2023-01-10T00:46:49;101058.80;;;7.38;56.50
55517;BME280;41724;51.176;-0.708;2023-01-10T00:49:17;101069.11;;;7.52;57.44
55517;BME280;41724;51.176;-0.708;2023-01-10T00:51:44;101075.34;;;6.98;57.80
55517;BME280;41724;51.176;-0.708;2023-01-10T00:54:13;101074.69;;;7.25;57.83
55517;BME280;41724;51.176;-0.708;2023-01-10T00:56:40;101074.60;;;6.80;57.84
55517;BME280;41724;51.176;-0.708;2023-01-10T00:59:07;101071.68;;;6.83;57.48
55517;BME280;41724;51.176;-0.708;2023-01-10T01:01:34;101071.27;;;6.87;57.56
55517;BME280;41724;51.176;-0.708;2023-01-10T01:04:01;101080.86;;;7.02;57.65
55517;BME280;41724;51.176;-0.708;2023-01-10T01:06:30;101081.09;;;7.28;57.09
55517;BME280;41724;51.176;-0.708;2023-01-10T01:08:58;101086.16;;;7.21;57.01
55517;BME280;41724;51.176;-0.708;2023-01-10T01:11:25;101088.91;;;6.70;56.98
55517;BME280;41724;51.176;-0.708;2023-01-10T01:13:52;101085.24;;;6.72;57.56
55517;BME280;41724;51.176;-0.708;2023-01-10T01:16:20;101083.33;;;6.60;57.34
55517;BME280;41724;51.176;-0.708;2023-01-10T01:18:47;101085.50;;;6.64;57.86
55517;BME280;41724;51.176;-0.708;2023-01-10T01:21:15;101088.55;;;6.90;57.98
55517;BME280;41724;51.176;-0.708;2023-01-10T01:23:42;101087.70;;;6.37;58.07
55517;BME280;41724;51.176;-0.708;2023-01-10T01:26:09;101087.67;;;6.73;58.48
55517;BME280;41724;51.176;-0.708;2023-01-10T01:28:37;101090.54;;;7.03;58.48
55517;BME280;41724;51.176;-0.708;2023-01-10T01:31:07;101096.98;;;6.95;58.11
55517;BME280;41724;51.176;-0.708;2023-01-10T01:33:35;101106.10;;;6.34;58.99
55517;BME280;41724;51.176;-0.708;2023-01-10T01:36:07;101112.93;;;6.83;59.63
55517;BME280;41724;51.176;-0.708;2023-01-10T01:38:34;101121.79;;;6.02;61.62
55517;BME280;41724;51.176;-0.708;2023-01-10T01:41:01;101111.73;;;5.29;65.10
55517;BME280;41724;51.176;-0.708;2023-01-10T01:43:29;101101.31;;;4.83;65.94
55517;BME280;41724;51.176;-0.708;2023-01-10T01:45:59;101105.44;;;4.53;67.23
55517;BME280;41724;51.176;-0.708;2023-01-10T01:48:33;101103.55;;;4.83;67.43
55517;BME280;41724;51.176;-0.708;2023-01-10T01:51:07;101101.03;;;4.76;68.03
55517;BME280;41724;51.176;-0.708;2023-01-10T01:53:42;101095.95;;;5.20;67.18
55517;BME280;41724;51.176;-0.708;2023-01-10T01:56:19;101096.53;;;5.75;64.63
55517;BME280;41724;51.176;-0.708;2023-01-10T01:58:53;101095.16;;;6.36;63.43
55517;BME280;41724;51.176;-0.708;2023-01-10T02:01:22;101091.94;;;6.67;62.46
55517;BME280;41724;51.176;-0.708;2023-01-10T02:03:52;101095.32;;;6.05;64.36
55517;BME280;41724;51.176;-0.708;2023-01-10T02:06:22;101100.02;;;5.30;64.81
55517;BME280;41724;51.176;-0.708;2023-01-10T02:08:55;101100.24;;;6.62;61.91
55517;BME280;41724;51.176;-0.708;2023-01-10T02:11:24;101092.91;;;6.64;61.29
55517;BME280;41724;51.176;-0.708;2023-01-10T02:13:52;101087.03;;;7.08;60.35
55517;BME280;41724;51.176;-0.708;2023-01-10T02:16:20;101088.17;;;6.65;60.52
55517;BME280;41724;51.176;-0.708;2023-01-10T02:18:48;101094.93;;;6.31;60.69
55517;BME280;41724;51.176;-0.708;2023-01-10T02:21:35;101090.10;;;6.90;61.16
55517;BME280;41724;51.176;-0.708;2023-01-10T02:24:28;101093.53;;;6.06;62.58
55517;BME280;41724;51.176;-0.708;2023-01-10T02:27:12;101102.19;;;6.17;61.30
55517;BME280;41724;51.176;-0.708;2023-01-10T02:30:16;101102.15;;;6.97;60.37
55517;BME280;41724;51.176;-0.708;2023-01-10T02:32:55;101106.20;;;6.14;61.66
55517;BME280;41724;51.176;-0.708;2023-01-10T02:36:37;101104.28;;;6.88;61.22
55517;BME280;41724;51.176;-0.708;2023-01-10T02:39:11;101101.72;;;7.24;60.97
55517;BME280;41724;51.176;-0.708;2023-01-10T02:41:49;101102.22;;;7.26;60.03
55517;BME280;41724;51.176;-0.708;2023-01-10T02:44:26;101097.53;;;7.31;60.51
55517;BME280;41724;51.176;-0.708;2023-01-10T02:46:55;101094.66;;;7.22;58.69
55517;BME280;41724;51.176;-0.708;2023-01-10T02:49:23;101087.24;;;8.26;57.88
55517;BME280;41724;51.176;-0.708;2023-01-10T02:51:50;101091.30;;;7.64;57.44
55517;BME280;41724;51.176;-0.708;2023-01-10T02:54:19;101091.64;;;8.17;58.31
55517;BME280;41724;51.176;-0.708;2023-01-10T02:57:09;101093.08;;;6.95;59.61
55517;BME280;41724;51.176;-0.708;2023-01-10T02:59:55;101100.12;;;6.47;62.43
55517;BME280;41724;51.176;-0.708;2023-01-10T03:02:46;101108.29;;;5.78;63.28
55517;BME280;41724;51.176;-0.708;2023-01-10T03:05:29;101111.25;;;5.96;64.52
55517;BME280;41724;51.176;-0.708;2023-01-10T03:08:06;101114.12;;;6.80;62.36
55517;BME280;41724;51.176;-0.708;2023-01-10T03:10:41;101111.71;;;6.94;61.37
55517;BME280;41724;51.176;-0.708;2023-01-10T03:13:20;101106.91;;;7.24;60.56
55517;BME280;41724;51.176;-0.708;2023-01-10T03:15:52;101103.00;;;6.78;61.65
55517;BME280;41724;51.176;-0.708;2023-01-10T03:18:26;101100.89;;;6.96;61.72
55517;BME280;41724;51.176;-0.708;2023-01-10T03:20:57;101100.88;;;6.56;62.46
55517;BME280;41724;51.176;-0.708;2023-01-10T03:23:27;101094.87;;;6.62;62.35
55517;BME280;41724;51.176;-0.708;2023-01-10T03:25:56;101092.63;;;6.00;64.43
55517;BME280;41724;51.176;-0.708;2023-01-10T03:28:27;101080.30;;;6.61;63.28
55517;BME280;41724;51.176;-0.708;2023-01-10T03:30:58;101063.03;;;7.39;62.97
55517;BME280;41724;51.176;-0.708;2023-01-10T03:33:31;101053.61;;;7.51;60.93
55517;BME280;41724;51.176;-0.708;2023-01-10T03:36:10;101052.38;;;7.68;61.10
55517;BME280;41724;51.176;-0.708;2023-01-10T03:38:42;101052.45;;;7.89;61.51
55517;BME280;41724;51.176;-0.708;2023-01-10T03:41:18;101051.99;;;7.98;59.89
55517;BME280;41724;51.176;-0.708;2023-01-10T03:43:56;101052.13;;;8.25;59.37
55517;BME280;41724;51.176;-0.708;2023-01-10T03:46:35;101045.89;;;8.52;59.13
55517;BME280;41724;51.176;-0.708;2023-01-10T03:49:04;101040.69;;;9.01;57.38
55517;BME280;41724;51.176;-0.708;2023-01-10T03:51:33;101030.75;;;9.07;57.56
55517;BME280;41724;51.176;-0.708;2023-01-10T03:54:01;101020.38;;;9.01;56.93
55517;BME280;41724;51.176;-0.708;2023-01-10T03:56:29;101010.09;;;8.95;57.28
55517;BME280;41724;51.176;-0.708;2023-01-10T03:58:56;101001.29;;;9.08;57.76
55517;BME280;41724;51.176;-0.708;2023-01-10T04:01:24;100997.42;;;8.88;56.30
55517;BME280;41724;51.176;-0.708;2023-01-10T04:03:51;100990.01;;;9.18;56.41
55517;BME280;41724;51.176;-0.708;2023-01-10T04:06:18;100989.28;;;9.15;56.69
55517;BME280;41724;51.176;-0.708;2023-01-10T04:08:45;100993.18;;;8.82;56.13
55517;BME280;41724;51.176;-0.708;2023-01-10T04:11:12;100989.23;;;8.75;56.24
55517;BME280;41724;51.176;-0.708;2023-01-10T04:13:39;100992.95;;;8.91;56.78
55517;BME280;41724;51.176;-0.708;2023-01-10T04:16:07;100992.79;;;8.69;56.19
55517;BME280;41724;51.176;-0.708;2023-01-10T04:18:34;100992.92;;;8.86;56.40
55517;BME280;41724;51.176;-0.708;2023-01-10T04:21:01;100994.13;;;8.90;56.42
55517;BME280;41724;51.176;-0.708;2023-01-10T04:23:27;100995.91;;;8.84;56.23
55517;BME280;41724;51.176;-0.708;2023-01-10T04:25:55;100997.39;;;8.86;56.30
55517;BME280;41724;51.176;-0.708;2023-01-10T04:28:22;100993.53;;;8.78;56.09
55517;BME280;41724;51.176;-0.708;2023-01-10T04:30:50;100987.13;;;8.69;56.69
55517;BME280;41724;51.176;-0.708;2023-01-10T04:33:16;100978.33;;;8.66;57.13
55517;BME280;41724;51.176;-0.708;2023-01-10T04:35:48;100977.27;;;8.67;57.03
55517;BME280;41724;51.176;-0.708;2023-01-10T04:38:17;100971.47;;;8.77;56.88
55517;BME280;41724;51.176;-0.708;2023-01-10T04:40:50;100972.31;;;8.81;56.75
55517;BME280;41724;51.176;-0.708;2023-01-10T04:43:18;100970.32;;;8.78;57.01
55517;BME280;41724;51.176;-0.708;2023-01-10T04:45:45;100967.47;;;8.84;57.10
55517;BME280;41724;51.176;-0.708;2023-01-10T04:48:12;100969.17;;;8.73;57.37
55517;BME280;41724;51.176;-0.708;2023-01-10T04:50:39;100967.47;;;8.62;56.88
55517;BME280;41724;51.176;-0.708;2023-01-10T04:53:06;100965.26;;;8.68;57.15
55517;BME280;41724;51.176;-0.708;2023-01-10T04:55:33;100959.04;;;9.01;56.79
55517;BME280;41724;51.176;-0.708;2023-01-10T04:58:01;100953.83;;;9.11;57.57
55517;BME280;41724;51.176;-0.708;2023-01-10T05:00:28;100948.05;;;8.83;58.60
55517;BME280;41724;51.176;-0.708;2023-01-10T05:02:55;100937.49;;;9.11;58.04
55517;BME280;41724;51.176;-0.708;2023-01-10T05:05:23;100933.99;;;9.27;58.12
55517;BME280;41724;51.176;-0.708;2023-01-10T05:07:50;100934.41;;;9.44;57.44
55517;BME280;41724;51.176;-0.708;2023-01-10T05:10:17;100939.19;;;9.59;57.71
55517;BME280;41724;51.176;-0.708;2023-01-10T05:12:44;100940.86;;;9.37;57.26
55517;BME280;41724;51.176;-0.708;2023-01-10T05:15:12;100937.07;;;9.44;56.77
55517;BME280;41724;51.176;-0.708;2023-01-10T05:17:39;100936.66;;;9.39;57.70
55517;BME280;41724;51.176;-0.708;2023-01-10T05:20:08;100935.70;;;9.48;57.76
55517;BME280;41724;51.176;-0.708;2023-01-10T05:22:35;100938.02;;;9.58;56.94
55517;BME280;41724;51.176;-0.708;2023-01-10T05:25:03;100940.71;;;9.43;57.83
55517;BME280;41724;51.176;-0.708;2023-01-10T05:27:31;100941.22;;;9.02;58.47
55517;BME280;41724;51.176;-0.708;2023-01-10T05:29:58;100944.83;;;8.80;59.47
55517;BME280;41724;51.176;-0.708;2023-01-10T05:32:27;100943.32;;;8.55;60.56
55517;BME280;41724;51.176;-0.708;2023-01-10T05:34:54;100938.81;;;8.58;60.37
55517;BME280;41724;51.176;-0.708;2023-01-10T05:37:21;100931.44;;;8.26;60.47
55517;BME280;41724;51.176;-0.708;2023-01-10T05:39:48;100927.53;;;8.74;61.13
55517;BME280;41724;51.176;-0.708;2023-01-10T05:42:15;100915.22;;;8.77;60.75
55517;BME280;41724;51.176;-0.708;2023-01-10T05:44:42;100911.92;;;9.40;60.17
55517;BME280;41724;51.176;-0.708;2023-01-10T05:47:10;100906.95;;;9.82;59.01
55517;BME280;41724;51.176;-0.708;2023-01-10T05:49:37;100907.86;;;9.55;58.79
55517;BME280;41724;51.176;-0.708;2023-01-10T05:52:04;100908.00;;;9.55;58.89
55517;BME280;41724;51.176;-0.708;2023-01-10T05:54:31;100907.85;;;9.47;59.23
55517;BME280;41724;51.176;-0.708;2023-01-10T05:56:58;100902.91;;;9.73;59.13
55517;BME280;41724;51.176;-0.708;2023-01-10T05:59:25;100902.43;;;9.58;59.74
55517;BME280;41724;51.176;-0.708;2023-01-10T06:01:52;100906.09;;;7.99;64.17
55517;BME280;41724;51.176;-0.708;2023-01-10T06:04:20;100901.72;;;8.78;64.26
55517;BME280;41724;51.176;-0.708;2023-01-10T06:06:46;100904.48;;;8.37;67.51
55517;BME280;41724;51.176;-0.708;2023-01-10T06:09:14;100900.04;;;8.21;69.74
55517;BME280;41724;51.176;-0.708;2023-01-10T06:11:41;100899.58;;;7.37;73.54
55517;BME280;41724;51.176;-0.708;2023-01-10T06:14:07;100892.29;;;7.35;76.97
55517;BME280;41724;51.176;-0.708;2023-01-10T06:16:35;100879.68;;;6.67;80.75
55517;BME280;41724;51.176;-0.708;2023-01-10T06:19:01;100875.26;;;6.19;82.22
55517;BME280;41724;51.176;-0.708;2023-01-10T06:21:28;100869.18;;;6.74;79.74
55517;BME280;41724;51.176;-0.708;2023-01-10T06:23:56;100862.19;;;7.23;80.09
55517;BME280;41724;51.176;-0.708;2023-01-10T06:26:22;100859.06;;;7.01;80.71
55517;BME280;41724;51.176;-0.708;2023-01-10T06:28:50;100849.52;;;7.20;78.49
55517;BME280;41724;51.176;-0.708;2023-01-10T06:31:17;100848.05;;;7.27;80.84
55517;BME280;41724;51.176;-0.708;2023-01-10T06:33:44;100838.54;;;8.11;76.70
55517;BME280;41724;51.176;-0.708;2023-01-10T06:36:11;100836.09;;;7.74;76.67
55517;BME280;41724;51.176;-0.708;2023-01-10T06:38:38;100832.22;;;8.37;74.47
55517;BME280;41724;51.176;-0.708;2023-01-10T06:41:05;100827.77;;;8.47;74.76
55517;BME280;41724;51.176;-0.708;2023-01-10T06:43:32;100823.10;;;9.10;72.90
55517;BME280;41724;51.176;-0.708;2023-01-10T06:46:00;100829.71;;;7.26;78.79
55517;BME280;41724;51.176;-0.708;2023-01-10T06:48:27;100822.02;;;8.09;76.72
55517;BME280;41724;51.176;-0.708;2023-01-10T06:50:55;100813.98;;;7.90;76.68
55517;BME280;41724;51.176;-0.708;2023-01-10T06:53:22;100817.06;;;8.52;75.09
55517;BME280;41724;51.176;-0.708;2023-01-10T06:55:49;100815.96;;;8.13;76.74
55517;BME280;41724;51.176;-0.708;2023-01-10T06:58:17;100814.60;;;7.67;79.52
55517;BME280;41724;51.176;-0.708;2023-01-10T07:00:44;100804.63;;;7.09;84.34
55517;BME280;41724;51.176;-0.708;2023-01-10T07:03:11;100804.00;;;6.42;87.22
55517;BME280;41724;51.176;-0.708;2023-01-10T07:05:38;100794.95;;;6.20;90.18
55517;BME280;41724;51.176;-0.708;2023-01-10T07:08:05;100791.03;;;6.28;88.91
55517;BME280;41724;51.176;-0.708;2023-01-10T07:10:32;100789.57;;;6.29;88.90
55517;BME280;41724;51.176;-0.708;2023-01-10T07:12:59;100781.93;;;6.64;87.59
55517;BME280;41724;51.176;-0.708;2023-01-10T07:15:28;100782.61;;;6.74;86.05
55517;BME280;41724;51.176;-0.708;2023-01-10T07:17:55;100775.19;;;6.19;90.67
55517;BME280;41724;51.176;-0.708;2023-01-10T07:20:23;100769.56;;;6.06;90.88
55517;BME280;41724;51.176;-0.708;2023-01-10T07:22:54;100767.87;;;6.54;89.41
55517;BME280;41724;51.176;-0.708;2023-01-10T07:25:21;100772.61;;;6.79;88.06
55517;BME280;41724;51.176;-0.708;2023-01-10T07:27:48;100773.77;;;5.54;90.57
55517;BME280;41724;51.176;-0.708;2023-01-10T07:30:16;100778.36;;;6.73;86.41
55517;BME280;41724;51.176;-0.708;2023-01-10T07:32:44;100773.24;;;6.46;87.67
55517;BME280;41724;51.176;-0.708;2023-01-10T07:35:11;100761.29;;;6.80;87.67
55517;BME280;41724;51.176;-0.708;2023-01-10T07:37:38;100761.65;;;6.33;85.66
55517;BME280;41724;51.176;-0.708;2023-01-10T07:40:06;100754.10;;;7.24;85.17
55517;BME280;41724;51.176;-0.708;2023-01-10T07:42:34;100760.45;;;6.73;86.12
55517;BME280;41724;51.176;-0.708;2023-01-10T07:45:01;100749.02;;;7.10;85.78
55517;BME280;41724;51.176;-0.708;2023-01-10T07:47:28;100744.62;;;6.28;87.87
55517;BME280;41724;51.176;-0.708;2023-01-10T07:49:56;100747.01;;;5.88;90.30
55517;BME280;41724;51.176;-0.708;2023-01-10T07:52:23;100739.31;;;5.64;92.67
55517;BME280;41724;51.176;-0.708;2023-01-10T07:54:50;100728.95;;;6.04;91.41
55517;BME280;41724;51.176;-0.708;2023-01-10T07:57:17;100728.21;;;6.10;92.23
55517;BME280;41724;51.176;-0.708;2023-01-10T07:59:44;100727.65;;;5.37;95.44
55517;BME280;41724;51.176;-0.708;2023-01-10T08:02:11;100724.45;;;5.34;94.81
55517;BME280;41724;51.176;-0.708;2023-01-10T08:04:38;100717.75;;;5.94;90.27
55517;BME280;41724;51.176;-0.708;2023-01-10T08:07:06;100722.58;;;6.04;90.33
55517;BME280;41724;51.176;-0.708;2023-01-10T08:09:33;100723.52;;;5.87;90.79
55517;BME280;41724;51.176;-0.708;2023-01-10T08:12:00;100710.88;;;6.15;90.33
55517;BME280;41724;51.176;-0.708;2023-01-10T08:14:27;100703.68;;;5.82;92.67
55517;BME280;41724;51.176;-0.708;2023-01-10T08:16:54;100701.79;;;5.57;94.77
55517;BME280;41724;51.176;-0.708;2023-01-10T08:19:21;100693.58;;;5.31;95.64
55517;BME280;41724;51.176;-0.708;2023-01-10T08:21:49;100686.94;;;5.25;97.62
55517;BME280;41724;51.176;-0.708;2023-01-10T08:24:16;100671.19;;;5.46;98.09
55517;BME280;41724;51.176;-0.708;2023-01-10T08:26:44;100663.79;;;5.45;98.05
55517;BME280;41724;51.176;-0.708;2023-01-10T08:29:11;100648.73;;;6.24;94.32
55517;BME280;41724;51.176;-0.708;2023-01-10T08:31:40;100637.20;;;6.46;93.13
55517;BME280;41724;51.176;-0.708;2023-01-10T08:34:07;100638.50;;;6.36;91.13
55517;BME280;41724;51.176;-0.708;2023-01-10T08:36:34;100648.44;;;6.22;93.38
55517;BME280;41724;51.176;-0.708;2023-01-10T08:39:01;100639.44;;;6.19;92.94
55517;BME280;41724;51.176;-0.708;2023-01-10T08:41:29;100652.32;;;6.25;94.44
55517;BME280;41724;51.176;-0.708;2023-01-10T08:43:56;100646.08;;;6.54;93.97
55517;BME280;41724;51.176;-0.708;2023-01-10T08:46:23;100639.89;;;5.88;95.25
55517;BME280;41724;51.176;-0.708;2023-01-10T08:48:50;100641.05;;;5.47;97.69
55517;BME280;41724;51.176;-0.708;2023-01-10T08:51:19;100636.20;;;5.70;99.42
55517;BME280;41724;51.176;-0.708;2023-01-10T08:53:46;100622.28;;;6.43;95.82
55517;BME280;41724;51.176;-0.708;2023-01-10T08:56:13;100618.91;;;6.01;98.98
55517;BME280;41724;51.176;-0.708;2023-01-10T08:58:41;100613.58;;;5.30;100.00
55517;BME280;41724;51.176;-0.708;2023-01-10T09:01:09;100612.49;;;6.29;95.42
55517;BME280;41724;51.176;-0.708;2023-01-10T09:03:36;100606.89;;;6.78;93.12
55517;BME280;41724;51.176;-0.708;2023-01-10T09:06:03;100604.15;;;6.22;92.60
55517;BME280;41724;51.176;-0.708;2023-01-10T09:08:30;100602.15;;;6.19;94.18
55517;BME280;41724;51.176;-0.708;2023-01-10T09:10:58;100593.24;;;6.77;94.46
55517;BME280;41724;51.176;-0.708;2023-01-10T09:13:32;100590.24;;;6.49;95.42
55517;BME280;41724;51.176;-0.708;2023-01-10T09:15:59;100581.11;;;6.41;95.30
55517;BME280;41724;51.176;-0.708;2023-01-10T09:18:27;100575.18;;;5.80;97.39
55517;BME280;41724;51.176;-0.708;2023-01-10T09:20:55;100568.29;;;5.94;97.16
55517;BME280;41724;51.176;-0.708;2023-01-10T09:23:22;100572.57;;;6.20;96.05
55517;BME280;41724;51.176;-0.708;2023-01-10T09:25:51;100570.24;;;5.75;98.38
55517;BME280;41724;51.176;-0.708;2023-01-10T09:28:19;100563.57;;;5.03;100.00
55517;BME280;41724;51.176;-0.708;2023-01-10T09:30:47;100565.01;;;6.29;97.22
55517;BME280;41724;51.176;-0.708;2023-01-10T09:33:14;100557.45;;;6.84;97.14
55517;BME280;41724;51.176;-0.708;2023-01-10T09:35:42;100581.24;;;5.95;99.25
55517;BME280;41724;51.176;-0.708;2023-01-10T09:38:12;100561.59;;;6.01;100.00
55517;BME280;41724;51.176;-0.708;2023-01-10T09:40:52;100550.76;;;5.88;100.00
55517;BME280;41724;51.176;-0.708;2023-01-10T09:43:29;100549.93;;;6.03;100.00
55517;BME280;41724;51.176;-0.708;2023-01-10T09:46:07;100537.75;;;6.46;100.00
55517;BME280;41724;51.176;-0.708;2023-01-10T09:48:46;100534.63;;;6.29;98.78
55517;BME280;41724;51.176;-0.708;2023-01-10T09:51:28;100542.43;;;6.06;100.00
55517;BME280;41724;51.176;-0.708;2023-01-10T09:54:01;100530.69;;;5.80;100.00
55517;BME280;41724;51.176;-0.708;2023-01-10T15:31:08;100075.99;;;8.68;100.00
55517;BME280;41724;51.176;-0.708;2023-01-10T15:33:36;100054.38;;;9.17;100.00
55517;BME280;41724;51.176;-0.708;2023-01-10T15:36:05;100054.14;;;8.78;100.00
55517;BME280;41724;51.176;-0.708;2023-01-10T15:38:36;100042.72;;;9.10;100.00
55517;BME280;41724;51.176;-0.708;2023-01-10T15:41:06;100045.62;;;9.05;100.00
55517;BME280;41724;51.176;-0.708;2023-01-10T15:43:34;100051.21;;;9.12;100.00
55517;BME280;41724;51.176;-0.708;2023-01-10T15:46:17;100031.05;;;8.83;100.00
55517;BME280;41724;51.176;-0.708;2023-01-10T15:48:53;100016.76;;;9.98;100.00
55517;BME280;41724;51.176;-0.708;2023-01-10T15:51:25;100010.34;;;9.44;100.00
55517;BME280;41724;51.176;-0.708;2023-01-10T15:53:55;100024.59;;;9.11;100.00
55517;BME280;41724;51.176;-0.708;2023-01-10T15:56:26;100047.17;;;8.94;100.00
55517;BME280;41724;51.176;-0.708;2023-01-10T15:58:55;100019.98;;;9.22;100.00
55517;BME280;41724;51.176;-0.708;2023-01-10T16:01:23;100015.98;;;9.12;100.00
55517;BME280;41724;51.176;-0.708;2023-01-10T16:03:51;100001.57;;;8.54;100.00
55517;BME280;41724;51.176;-0.708;2023-01-10T16:06:23;99997.51;;;8.85;100.00
55517;BME280;41724;51.176;-0.708;2023-01-10T16:08:53;99995.95;;;9.13;100.00
55517;BME280;41724;51.176;-0.708;2023-01-10T16:11:24;99990.65;;;8.98;100.00
55517;BME280;41724;51.176;-0.708;2023-01-10T16:13:53;99986.35;;;9.07;100.00
55517;BME280;41724;51.176;-0.708;2023-01-10T16:16:20;100007.13;;;8.99;100.00
55517;BME280;41724;51.176;-0.708;2023-01-10T16:18:47;99994.37;;;9.25;100.00
55517;BME280;41724;51.176;-0.708;2023-01-10T16:21:14;100000.99;;;8.53;100.00
55517;BME280;41724;51.176;-0.708;2023-01-10T16:23:42;99988.92;;;9.08;100.00
55517;BME280;41724;51.176;-0.708;2023-01-10T16:26:10;99979.30;;;9.09;100.00
55517;BME280;41724;51.176;-0.708;2023-01-10T16:28:37;99982.08;;;8.96;100.00
55517;BME280;41724;51.176;-0.708;2023-01-10T16:31:08;99990.45;;;8.99;100.00
55517;BME280;41724;51.176;-0.708;2023-01-10T16:33:36;99994.76;;;8.59;100.00
55517;BME280;41724;51.176;-0.708;2023-01-10T16:36:08;99972.28;;;8.64;100.00
55517;BME280;41724;51.176;-0.708;2023-01-10T16:38:38;99967.83;;;8.87;100.00
55517;BME280;41724;51.176;-0.708;2023-01-10T16:41:10;99974.55;;;8.42;100.00
55517;BME280;41724;51.176;-0.708;2023-01-10T16:43:38;99983.27;;;9.14;100.00
55517;BME280;41724;51.176;-0.708;2023-01-10T16:46:05;99963.01;;;8.72;100.00
55517;BME280;41724;51.176;-0.708;2023-01-10T16:48:32;99975.73;;;9.09;100.00
55517;BME280;41724;51.176;-0.708;2023-01-10T16:51:09;99982.86;;;9.01;100.00
55517;BME280;41724;51.176;-0.708;2023-01-10T16:53:39;99968.14;;;8.99;100.00
55517;BME280;41724;51.176;-0.708;2023-01-10T16:56:10;99970.71;;;8.58;100.00
55517;BME280;41724;51.176;-0.708;2023-01-10T16:58:39;99976.18;;;8.86;100.00
55517;BME280;41724;51.176;-0.708;2023-01-10T17:01:08;99985.42;;;9.19;100.00
55517;BME280;41724;51.176;-0.708;2023-01-10T17:03:38;99978.45;;;9.41;100.00
55517;BME280;41724;51.176;-0.708;2023-01-10T17:06:06;99993.31;;;8.97;100.00
55517;BME280;41724;51.176;-0.708;2023-01-10T17:08:33;99979.15;;;8.81;100.00
55517;BME280;41724;51.176;-0.708;2023-01-10T17:11:02;99965.36;;;8.86;100.00
55517;BME280;41724;51.176;-0.708;2023-01-10T17:13:32;99967.73;;;8.63;100.00
55517;BME280;41724;51.176;-0.708;2023-01-10T17:16:01;99966.03;;;9.10;100.00
55517;BME280;41724;51.176;-0.708;2023-01-10T17:18:27;99974.44;;;9.31;100.00
55517;BME280;41724;51.176;-0.708;2023-01-10T17:20:56;99969.55;;;9.25;100.00
55517;BME280;41724;51.176;-0.708;2023-01-10T17:23:24;99943.07;;;9.51;100.00
55517;BME280;41724;51.176;-0.708;2023-01-10T17:25:58;99952.89;;;9.14;100.00
55517;BME280;41724;51.176;-0.708;2023-01-10T17:28:26;99958.41;;;9.09;100.00
55517;BME280;41724;51.176;-0.708;2023-01-10T17:30:54;99961.80;;;9.46;100.00
55517;BME280;41724;51.176;-0.708;2023-01-10T17:33:21;99947.92;;;8.82;100.00
55517;BME280;41724;51.176;-0.708;2023-01-10T17:35:52;99943.26;;;8.80;100.00
55517;BME280;41724;51.176;-0.708;2023-01-10T17:38:20;99940.01;;;8.90;100.00
55517;BME280;41724;51.176;-0.708;2023-01-10T17:40:50;99925.26;;;9.36;100.00
55517;BME280;41724;51.176;-0.708;2023-01-10T17:43:19;99918.03;;;9.24;100.00
55517;BME280;41724;51.176;-0.708;2023-01-10T17:45:48;99923.11;;;9.21;100.00
55517;BME280;41724;51.176;-0.708;2023-01-10T17:48:17;99917.56;;;8.82;100.00
55517;BME280;41724;51.176;-0.708;2023-01-10T17:50:46;99932.71;;;8.67;100.00
55517;BME280;41724;51.176;-0.708;2023-01-10T17:53:14;99900.35;;;9.01;100.00
55517;BME280;41724;51.176;-0.708;2023-01-10T17:55:43;99913.15;;;9.16;100.00
55517;BME280;41724;51.176;-0.708;2023-01-10T17:58:10;99901.90;;;8.91;100.00
55517;BME280;41724;51.176;-0.708;2023-01-10T18:00:38;99926.94;;;8.89;100.00
55517;BME280;41724;51.176;-0.708;2023-01-10T18:03:05;99899.98;;;9.39;100.00
55517;BME280;41724;51.176;-0.708;2023-01-10T18:05:32;99905.51;;;8.86;100.00
55517;BME280;41724;51.176;-0.708;2023-01-10T18:07:59;99896.74;;;9.19;100.00
55517;BME280;41724;51.176;-0.708;2023-01-10T18:10:26;99900.91;;;9.03;100.00
55517;BME280;41724;51.176;-0.708;2023-01-10T18:12:54;99895.55;;;9.15;100.00
55517;BME280;41724;51.176;-0.708;2023-01-10T18:15:21;99899.96;;;9.20;100.00
55517;BME280;41724;51.176;-0.708;2023-01-10T18:17:49;99908.51;;;9.02;100.00
55517;BME280;41724;51.176;-0.708;2023-01-10T18:20:18;99901.09;;;9.07;100.00
55517;BME280;41724;51.176;-0.708;2023-01-10T18:22:45;99880.94;;;9.34;100.00
55517;BME280;41724;51.176;-0.708;2023-01-10T18:25:12;99870.28;;;8.88;100.00
55517;BME280;41724;51.176;-0.708;2023-01-10T18:27:41;99867.83;;;8.84;100.00
55517;BME280;41724;51.176;-0.708;2023-01-10T18:30:09;99869.14;;;9.08;100.00
55517;BME280;41724;51.176;-0.708;2023-01-10T18:32:37;99865.80;;;9.09;100.00
55517;BME280;41724;51.176;-0.708;2023-01-10T18:35:04;99871.63;;;8.70;100.00